Grande Dakar — IBDK — position and weather

sailwx.info

Track history (hours):
 
Tides and Currents Weather Stations Pressure Air Temp Water Temp Dewpoint Dewpoint Depression Visibility Wind Speed Wind Dir Waves Ship Positions

Grande Dakar

Last reported at 2018-Jan-23 02:22 UTC. Time now 2018-Jan-23 16:16 UTC.
Position N 06°26' E 003°20'.

Length 236 m; draft 9.2 m.

Type: Ship (hazmat cat A). MMSI: 247341900.

Date/timePositionNaut miles runAvg speedWind from/ knotsBaromVisibWave heightAir tempDewpointWater temp
2018-Jan-23 02:22N 06°26' E 003°20'0 0.0
2018-Jan-23 01:58N 06°26' E 003°20'0 0.0
2018-Jan-23 01:10N 06°26' E 003°20'0 0.0
2018-Jan-23 00:58N 06°26' E 003°20'0 0.0
2018-Jan-23 00:28N 06°26' E 003°20'0 0.0
2018-Jan-22 23:58N 06°26' E 003°20'0 0.0
2018-Jan-22 23:22N 06°26' E 003°20'0 0.0
2018-Jan-22 22:58N 06°26' E 003°20'0 0.0
2018-Jan-22 22:28N 06°26' E 003°20'0 0.0
2018-Jan-22 21:55N 06°26' E 003°20'0 0.0
2018-Jan-22 21:28N 06°26' E 003°20'0 0.0
2018-Jan-22 20:58N 06°26' E 003°20'0 0.0
2018-Jan-22 20:28N 06°26' E 003°20'0 0.0
2018-Jan-22 19:58N 06°26' E 003°20'0 0.0
2018-Jan-22 19:28N 06°26' E 003°20'0 0.0
2018-Jan-22 18:58N 06°26' E 003°20'0 0.0
2018-Jan-22 18:28N 06°26' E 003°20'0 0.0
2018-Jan-22 17:46N 06°26' E 003°20'0 0.0
2018-Jan-22 17:22N 06°26' E 003°20'0 0.0
2018-Jan-22 15:58N 06°26' E 003°20'51 2.8
2018-Jan-21 21:47N 06°17' E 002°30'0 0.0
2018-Jan-21 21:23N 06°17' E 002°30'0 0.0
2018-Jan-21 18:11N 06°17' E 002°30'0 0.0
2018-Jan-21 17:53N 06°17' E 002°30'6 0.4
2018-Jan-21 01:07N 06°21' E 002°25'1 2.3
2018-Jan-21 00:50N 06°21' E 002°26'4 4.5
2018-Jan-20 23:53N 06°17' E 002°29'2 4.4
2018-Jan-20 23:30N 06°16' E 002°30'72 3.0
2018-Jan-19 23:41N 06°09' E 001°17'0 0.0
2018-Jan-19 23:23N 06°09' E 001°17'0 0.0
2018-Jan-19 22:11N 06°09' E 001°17'0 0.0
2018-Jan-19 20:08N 06°09' E 001°17'0 0.0
2018-Jan-19 19:59N 06°09' E 001°17'0 0.0
2018-Jan-19 19:29N 06°09' E 001°17'0 0.0
2018-Jan-19 18:59N 06°09' E 001°17'0 0.0
2018-Jan-19 18:29N 06°09' E 001°17'0 0.0
2018-Jan-19 17:59N 06°09' E 001°17'0 0.0
2018-Jan-19 17:29N 06°09' E 001°17'0 0.0
2018-Jan-19 16:56N 06°09' E 001°17'0 0.0
2018-Jan-19 16:29N 06°09' E 001°17'59 7.7
2018-Jan-19 08:51N 05°26' E 000°36'618.3
2018-Jan-19 08:30N 05°24' E 000°30'918.3
2018-Jan-19 08:00N 05°21' E 000°21'918.2
2018-Jan-19 07:31N 05°18' E 000°13'918.2
2018-Jan-19 07:00N 05°15' E 000°04'918.2
2018-Jan-19 06:31N 05°12' W 000°04'918.2
2018-Jan-19 05:59N 05°09' W 000°13'  
Track history (hours):
 
Tides and Currents Weather Stations Pressure Air Temp Water Temp Dewpoint Dewpoint Depression Visibility Wind Speed Wind Dir Waves Ship Positions

Grande Dakar

Last reported at 2018-Jan-23 02:22 UTC. Time now 2018-Jan-23 16:16 UTC.
Position N 06°26' E 003°20'.

Length 236 m; draft 9.2 m.

Type: Ship (hazmat cat A). MMSI: 247341900.

Date/timePositionNaut miles runAvg speedWind from/ knotsBaromVisibWave heightAir tempDewpointWater temp
2018-Jan-23 02:22N 06°26' E 003°20'0 0.0
2018-Jan-23 01:58N 06°26' E 003°20'0 0.0
2018-Jan-23 01:10N 06°26' E 003°20'0 0.0
2018-Jan-23 00:58N 06°26' E 003°20'0 0.0
2018-Jan-23 00:28N 06°26' E 003°20'0 0.0
2018-Jan-22 23:58N 06°26' E 003°20'0 0.0
2018-Jan-22 23:22N 06°26' E 003°20'0 0.0
2018-Jan-22 22:58N 06°26' E 003°20'0 0.0
2018-Jan-22 22:28N 06°26' E 003°20'0 0.0
2018-Jan-22 21:55N 06°26' E 003°20'0 0.0
2018-Jan-22 21:28N 06°26' E 003°20'0 0.0
2018-Jan-22 20:58N 06°26' E 003°20'0 0.0
2018-Jan-22 20:28N 06°26' E 003°20'0 0.0
2018-Jan-22 19:58N 06°26' E 003°20'0 0.0
2018-Jan-22 19:28N 06°26' E 003°20'0 0.0
2018-Jan-22 18:58N 06°26' E 003°20'0 0.0
2018-Jan-22 18:28N 06°26' E 003°20'0 0.0
2018-Jan-22 17:46N 06°26' E 003°20'0 0.0
2018-Jan-22 17:22N 06°26' E 003°20'0 0.0
2018-Jan-22 15:58N 06°26' E 003°20'51 2.8
2018-Jan-21 21:47N 06°17' E 002°30'0 0.0
2018-Jan-21 21:23N 06°17' E 002°30'0 0.0
2018-Jan-21 18:11N 06°17' E 002°30'0 0.0
2018-Jan-21 17:53N 06°17' E 002°30'6 0.4
2018-Jan-21 01:07N 06°21' E 002°25'1 2.3
2018-Jan-21 00:50N 06°21' E 002°26'4 4.5
2018-Jan-20 23:53N 06°17' E 002°29'2 4.4
2018-Jan-20 23:30N 06°16' E 002°30'72 3.0
2018-Jan-19 23:41N 06°09' E 001°17'0 0.0
2018-Jan-19 23:23N 06°09' E 001°17'0 0.0
2018-Jan-19 22:11N 06°09' E 001°17'0 0.0
2018-Jan-19 20:08N 06°09' E 001°17'0 0.0
2018-Jan-19 19:59N 06°09' E 001°17'0 0.0
2018-Jan-19 19:29N 06°09' E 001°17'0 0.0
2018-Jan-19 18:59N 06°09' E 001°17'0 0.0
2018-Jan-19 18:29N 06°09' E 001°17'0 0.0
2018-Jan-19 17:59N 06°09' E 001°17'0 0.0
2018-Jan-19 17:29N 06°09' E 001°17'0 0.0
2018-Jan-19 16:56N 06°09' E 001°17'0 0.0
2018-Jan-19 16:29N 06°09' E 001°17'59 7.7
2018-Jan-19 08:51N 05°26' E 000°36'618.3
2018-Jan-19 08:30N 05°24' E 000°30'918.3
2018-Jan-19 08:00N 05°21' E 000°21'918.2
2018-Jan-19 07:31N 05°18' E 000°13'918.2
2018-Jan-19 07:00N 05°15' E 000°04'918.2
2018-Jan-19 06:31N 05°12' W 000°04'918.2
2018-Jan-19 05:59N 05°09' W 000°13'  

Dump ship's entire track history